createdAt,value
2022-10-13T00:01:48.515Z,3.80
2022-10-13T00:04:14.998Z,3.47
2022-10-13T00:06:41.518Z,3.37
2022-10-13T00:09:08.065Z,3.80
2022-10-13T00:11:34.578Z,3.87
2022-10-13T00:14:04.097Z,3.53
2022-10-13T00:16:32.311Z,3.50
2022-10-13T00:18:59.551Z,3.70
2022-10-13T00:21:27.497Z,3.77
2022-10-13T00:23:54.870Z,3.77
2022-10-13T00:26:24.573Z,3.80
2022-10-13T00:28:53.075Z,3.77
2022-10-13T00:31:21.236Z,4.37
2022-10-13T00:33:49.340Z,4.00
2022-10-13T00:36:16.209Z,4.30
2022-10-13T00:38:43.866Z,4.00
2022-10-13T00:41:10.411Z,3.77
2022-10-13T00:44:04.097Z,4.10
2022-10-13T00:46:33.014Z,4.70
2022-10-13T00:49:09.194Z,4.13
2022-10-13T00:51:41.451Z,4.00
2022-10-13T00:54:11.361Z,4.33
2022-10-13T00:56:38.986Z,4.03
2022-10-13T00:59:13.018Z,4.60
2022-10-13T01:01:39.939Z,3.97
2022-10-13T01:04:06.660Z,4.33
2022-10-13T01:06:33.236Z,4.10
2022-10-13T01:08:59.958Z,4.20
2022-10-13T01:11:47.668Z,3.63
2022-10-13T01:14:38.418Z,4.23
2022-10-13T01:17:30.751Z,4.00
2022-10-13T01:20:32.625Z,4.40
2022-10-13T01:23:12.499Z,4.50
2022-10-13T01:25:45.074Z,4.30
2022-10-13T01:28:39.363Z,4.43
2022-10-13T01:31:32.375Z,4.63
2022-10-13T01:34:10.424Z,4.30
2022-10-13T01:36:55.053Z,4.60
2022-10-13T01:39:31.853Z,4.37
2022-10-13T01:42:11.484Z,4.87
2022-10-13T01:45:03.956Z,4.70
2022-10-13T01:47:33.623Z,5.50
2022-10-13T01:50:00.972Z,4.90
2022-10-13T01:52:33.382Z,4.63
2022-10-13T01:55:08.747Z,5.00
2022-10-13T01:57:38.997Z,4.83
2022-10-13T02:00:09.515Z,5.70
2022-10-13T02:02:54.236Z,6.23
2022-10-13T02:05:40.073Z,5.03
2022-10-13T02:08:15.926Z,5.70
2022-10-13T02:11:16.643Z,5.53
2022-10-13T02:14:03.382Z,5.10
2022-10-13T02:16:35.492Z,5.67
2022-10-13T02:19:05.541Z,5.40
2022-10-13T02:21:33.057Z,5.50
2022-10-13T02:23:59.658Z,6.17
2022-10-13T02:26:26.351Z,6.03
2022-10-13T02:28:53.355Z,6.50
2022-10-13T02:31:19.867Z,5.67
2022-10-13T02:33:46.381Z,6.07
2022-10-13T02:36:12.918Z,5.90
2022-10-13T02:38:39.441Z,6.57
2022-10-13T02:41:06.099Z,6.07
2022-10-13T02:43:33.977Z,6.30
2022-10-13T02:46:00.587Z,6.77
2022-10-13T02:48:27.107Z,6.97
2022-10-13T02:50:53.609Z,5.97
2022-10-13T02:53:20.192Z,6.90
2022-10-13T02:55:46.688Z,7.00
2022-10-13T02:58:13.213Z,7.10
2022-10-13T03:00:39.774Z,7.17
2022-10-13T03:03:06.502Z,7.50
2022-10-13T03:05:33.224Z,6.80
2022-10-13T03:07:59.777Z,7.30
2022-10-13T03:10:27.023Z,7.17
2022-10-13T03:12:55.197Z,6.77
2022-10-13T03:15:21.735Z,7.47
2022-10-13T03:17:48.417Z,7.10
2022-10-13T03:20:15.302Z,7.27
2022-10-13T03:22:43.958Z,7.23
2022-10-13T03:25:14.407Z,6.93
2022-10-13T03:27:40.925Z,7.90
2022-10-13T03:30:08.332Z,7.40
2022-10-13T03:32:34.861Z,8.10
2022-10-13T03:35:01.343Z,7.63
2022-10-13T03:37:30.275Z,8.37
2022-10-13T03:39:56.958Z,8.03
2022-10-13T03:42:23.646Z,8.17
2022-10-13T03:44:55.260Z,8.93
2022-10-13T03:47:22.917Z,8.00
2022-10-13T03:49:49.475Z,7.47
2022-10-13T03:52:16.004Z,8.10
2022-10-13T03:54:42.512Z,8.57
2022-10-13T03:57:09.011Z,8.13
2022-10-13T03:59:36.937Z,8.50
2022-10-13T04:02:04.081Z,8.37
2022-10-13T04:04:30.681Z,8.00
2022-10-13T04:06:57.170Z,8.57
2022-10-13T04:09:23.747Z,8.97
2022-10-13T04:11:51.653Z,8.60
2022-10-13T04:14:19.602Z,9.53
2022-10-13T04:16:47.114Z,8.30
2022-10-13T04:19:15.285Z,8.70
2022-10-13T04:21:43.827Z,9.70
2022-10-13T04:24:12.480Z,8.47
2022-10-13T04:26:39.807Z,8.93
2022-10-13T04:29:08.322Z,8.63
2022-10-13T04:31:35.206Z,9.43
2022-10-13T04:34:01.867Z,8.70
2022-10-13T04:36:28.363Z,9.03
2022-10-13T04:38:55.683Z,9.73
2022-10-13T04:41:23.056Z,10.13
2022-10-13T04:43:52.045Z,10.30
2022-10-13T04:46:21.047Z,10.20
2022-10-13T04:48:48.224Z,10.83
2022-10-13T04:51:18.183Z,10.40
2022-10-13T04:53:44.821Z,9.83
2022-10-13T04:56:17.093Z,10.77
2022-10-13T04:58:45.645Z,11.50
2022-10-13T05:01:21.772Z,10.53
2022-10-13T05:03:52.162Z,11.27
2022-10-13T05:06:28.510Z,11.87
2022-10-13T05:08:55.968Z,11.47
2022-10-13T05:11:24.245Z,10.80
2022-10-13T05:13:51.096Z,10.80
2022-10-13T05:16:19.423Z,11.13
2022-10-13T05:18:46.242Z,11.63
2022-10-13T05:21:24.446Z,10.97
2022-10-13T05:23:54.375Z,10.70
2022-10-13T05:26:21.892Z,11.57
2022-10-13T05:28:48.611Z,11.23
2022-10-13T05:31:16.546Z,12.47
2022-10-13T05:33:43.910Z,11.97
2022-10-13T05:36:13.282Z,11.43
2022-10-13T05:38:39.802Z,11.03
2022-10-13T05:41:11.262Z,11.27
2022-10-13T05:43:39.345Z,11.00
2022-10-13T05:46:06.230Z,11.27
2022-10-13T05:48:32.780Z,11.33
2022-10-13T05:51:01.638Z,10.90
2022-10-13T05:53:33.603Z,10.93
2022-10-13T05:56:06.284Z,10.97
2022-10-13T05:58:36.701Z,11.40
2022-10-13T06:01:07.090Z,10.70
2022-10-13T06:03:34.579Z,11.63
2022-10-13T06:06:01.152Z,11.00
2022-10-13T06:08:29.381Z,11.47
2022-10-13T06:10:55.988Z,11.33
2022-10-13T06:13:22.493Z,11.53
2022-10-13T06:15:48.977Z,10.67
2022-10-13T06:18:15.503Z,11.17
2022-10-13T06:20:43.016Z,11.60
2022-10-13T06:23:09.731Z,11.50
2022-10-13T06:25:36.382Z,11.37
2022-10-13T06:28:02.933Z,11.23
2022-10-13T06:30:29.540Z,12.70
2022-10-13T06:32:56.431Z,11.50
2022-10-13T06:35:23.722Z,12.70
2022-10-13T06:37:50.390Z,11.83
2022-10-13T06:40:17.172Z,12.90
2022-10-13T06:42:49.721Z,12.73
2022-10-13T06:45:16.289Z,13.60
2022-10-13T06:47:42.811Z,12.60
2022-10-13T06:50:09.725Z,12.60
2022-10-13T06:52:36.267Z,12.67
2022-10-13T06:55:02.996Z,14.27
2022-10-13T06:57:29.531Z,13.57
2022-10-13T06:59:56.176Z,13.97
2022-10-13T07:02:23.362Z,14.47
2022-10-13T07:04:49.949Z,13.87
2022-10-13T07:07:16.512Z,13.93
2022-10-13T07:09:43.035Z,13.70
2022-10-13T07:12:09.586Z,13.70
2022-10-13T07:14:38.184Z,13.80
2022-10-13T07:17:07.405Z,13.10
2022-10-13T07:19:34.100Z,14.67
2022-10-13T07:22:00.669Z,14.57
2022-10-13T07:24:27.312Z,14.07
2022-10-13T07:26:53.828Z,16.63
2022-10-13T07:29:20.361Z,14.43
2022-10-13T07:31:47.104Z,13.40
2022-10-13T07:34:15.481Z,13.80
2022-10-13T07:36:42.165Z,13.70
2022-10-13T07:39:09.362Z,14.07
2022-10-13T07:41:36.659Z,15.07
2022-10-13T07:44:03.255Z,14.40
2022-10-13T07:46:29.855Z,15.07
2022-10-13T07:48:56.606Z,14.50
2022-10-13T07:51:23.455Z,14.37
2022-10-13T07:53:51.090Z,14.93
2022-10-13T07:56:17.772Z,13.77
2022-10-13T07:58:46.693Z,15.67
2022-10-13T08:01:14.670Z,14.30
2022-10-13T08:03:44.250Z,15.40
2022-10-13T08:06:14.350Z,15.57
2022-10-13T08:08:40.936Z,15.40
2022-10-13T08:11:16.680Z,14.67
2022-10-13T08:13:48.236Z,15.67
2022-10-13T08:16:14.791Z,15.80
2022-10-13T08:18:41.290Z,16.63
2022-10-13T08:21:53.211Z,16.53
2022-10-13T08:23:59.839Z,15.43
2022-10-13T08:26:28.524Z,15.60
2022-10-13T08:29:16.578Z,18.40
2022-10-13T08:31:42.980Z,16.63
2022-10-13T08:34:10.822Z,17.03
2022-10-13T08:36:38.280Z,17.23
2022-10-13T08:39:05.562Z,17.53
2022-10-13T08:41:37.296Z,16.83
2022-10-13T08:44:59.200Z,16.03
2022-10-13T08:47:10.575Z,17.67
2022-10-13T08:49:37.313Z,16.83
2022-10-13T08:52:06.890Z,16.83
2022-10-13T08:54:33.463Z,17.63
2022-10-13T08:59:27.650Z,16.70
2022-10-13T09:01:55.586Z,17.97
2022-10-13T09:04:39.321Z,17.50
2022-10-13T09:07:10.716Z,18.90
2022-10-13T09:09:38.182Z,17.73
2022-10-13T09:12:05.571Z,17.57
2022-10-13T09:14:37.775Z,18.47
2022-10-13T09:19:56.851Z,17.77
2022-10-13T09:22:28.624Z,18.27
2022-10-13T09:25:07.275Z,17.87
2022-10-13T09:27:58.127Z,18.80
2022-10-13T09:30:32.812Z,18.83
2022-10-13T09:33:09.282Z,17.23
2022-10-13T09:35:38.764Z,18.43
2022-10-13T09:38:07.101Z,18.90
2022-10-13T09:40:34.137Z,19.13
2022-10-13T09:43:02.842Z,17.57
2022-10-13T09:45:32.411Z,17.87
2022-10-13T09:48:04.837Z,17.60
2022-10-13T09:50:35.296Z,17.63
2022-10-13T09:53:24.569Z,17.33
2022-10-13T09:56:26.851Z,17.67
2022-10-13T09:59:05.962Z,18.27
2022-10-13T10:01:40.686Z,17.13
2022-10-13T10:04:12.913Z,18.33
2022-10-13T10:06:40.522Z,17.70
2022-10-13T10:09:35.532Z,17.33
2022-10-13T10:12:04.882Z,16.20
2022-10-13T10:14:34.303Z,15.77
2022-10-13T10:17:06.927Z,18.07
2022-10-13T10:19:48.857Z,17.00
2022-10-13T10:22:30.667Z,18.97
2022-10-13T10:25:15.270Z,16.97
2022-10-13T10:27:50.034Z,16.97
2022-10-13T10:30:19.485Z,17.07
2022-10-13T10:32:53.593Z,16.83
2022-10-13T10:35:44.419Z,16.60
2022-10-13T10:38:13.718Z,16.43
2022-10-13T10:41:10.000Z,15.80
2022-10-13T10:43:43.027Z,15.87
2022-10-13T10:46:20.594Z,15.40
2022-10-13T10:48:50.404Z,16.80
2022-10-13T10:51:18.461Z,14.90
2022-10-13T10:53:53.826Z,15.43
2022-10-13T10:56:39.230Z,15.63
2022-10-13T10:59:36.804Z,16.60
2022-10-13T11:02:06.247Z,14.30
2022-10-13T11:04:44.333Z,14.77
2022-10-13T11:07:24.439Z,15.30
2022-10-13T11:09:54.161Z,15.73
2022-10-13T11:12:21.177Z,15.63
2022-10-13T11:14:54.700Z,14.97
2022-10-13T11:17:28.362Z,15.33
2022-10-13T11:19:55.408Z,14.27
2022-10-13T11:22:24.627Z,17.37
2022-10-13T11:24:59.753Z,15.37
2022-10-13T11:27:35.173Z,14.57
2022-10-13T11:30:02.956Z,14.90
2022-10-13T11:32:32.931Z,14.43
2022-10-13T11:35:05.527Z,17.53
2022-10-13T11:38:06.901Z,15.83
2022-10-13T11:41:11.104Z,18.03
2022-10-13T11:43:52.350Z,15.20
2022-10-13T11:46:34.902Z,14.03
2022-10-13T11:49:39.871Z,15.83
2022-10-13T11:52:31.933Z,14.40
2022-10-13T11:55:20.035Z,14.37
2022-10-13T11:57:46.587Z,13.83
2022-10-13T12:00:18.909Z,13.87
2022-10-13T12:02:53.440Z,15.27
2022-10-13T12:05:22.903Z,14.27
2022-10-13T12:07:52.959Z,15.20
2022-10-13T12:10:34.771Z,15.10
2022-10-13T12:13:02.487Z,14.57
2022-10-13T12:15:35.877Z,13.60
2022-10-13T12:18:19.529Z,15.20
2022-10-13T12:20:55.872Z,14.33
2022-10-13T12:23:22.814Z,14.57
2022-10-13T12:25:56.618Z,14.73
2022-10-13T12:28:25.964Z,16.60
2022-10-13T12:30:56.535Z,14.73
2022-10-13T12:33:33.635Z,15.73
2022-10-13T12:36:13.802Z,15.40
2022-10-13T12:38:45.981Z,14.20
2022-10-13T12:41:15.572Z,16.23
2022-10-13T12:43:43.369Z,14.83
2022-10-13T12:46:09.960Z,17.13
2022-10-13T12:48:38.253Z,16.73
2022-10-13T12:51:21.477Z,18.67
2022-10-13T12:53:48.427Z,18.90
2022-10-13T12:56:42.480Z,18.80
2022-10-13T12:59:17.156Z,16.50
2022-10-13T13:01:45.038Z,15.83
2022-10-13T13:04:20.853Z,19.77
2022-10-13T13:06:53.344Z,18.03
2022-10-13T13:09:42.166Z,19.97
2022-10-13T13:12:08.622Z,21.13
2022-10-13T13:14:39.792Z,19.93
2022-10-13T13:17:06.278Z,18.30
2022-10-13T13:19:34.465Z,19.17
2022-10-13T13:22:01.083Z,18.07
2022-10-13T13:24:39.252Z,17.20
2022-10-13T13:27:20.988Z,16.13
2022-10-13T13:29:48.195Z,18.67
2022-10-13T13:32:19.010Z,22.30
2022-10-13T13:34:46.955Z,20.20
2022-10-13T13:37:26.663Z,19.07
2022-10-13T13:39:53.261Z,18.77
2022-10-13T13:42:19.843Z,17.80
2022-10-13T13:44:46.390Z,18.03
2022-10-13T13:47:22.357Z,17.20
2022-10-13T13:49:51.168Z,18.13
2022-10-13T13:52:18.422Z,17.53
2022-10-13T13:54:45.158Z,16.63
2022-10-13T13:57:13.499Z,16.17
2022-10-13T13:59:40.972Z,15.90
2022-10-13T14:02:13.430Z,17.00
2022-10-13T14:04:40.405Z,17.20
2022-10-13T14:07:06.917Z,17.27
2022-10-13T14:09:33.458Z,17.93
2022-10-13T14:12:00.047Z,17.33
2022-10-13T14:14:26.568Z,17.23
2022-10-13T14:16:53.057Z,17.67
2022-10-13T14:19:19.834Z,17.47
2022-10-13T14:21:46.359Z,20.13
2022-10-13T14:24:12.971Z,17.50
2022-10-13T14:26:39.518Z,18.37
2022-10-13T14:29:06.046Z,16.53
2022-10-13T14:31:33.176Z,15.93
2022-10-13T14:33:59.763Z,16.53
2022-10-13T14:36:26.374Z,15.13
2022-10-13T14:38:54.209Z,17.00
2022-10-13T14:41:21.131Z,15.03
2022-10-13T14:43:47.662Z,15.90
2022-10-13T14:46:14.188Z,14.47
2022-10-13T14:48:40.672Z,15.17
2022-10-13T14:51:09.344Z,14.43
2022-10-13T14:53:37.943Z,14.63
2022-10-13T14:56:17.546Z,15.57
2022-10-13T14:58:44.390Z,14.70
2022-10-13T15:01:10.955Z,14.03
2022-10-13T15:03:37.511Z,13.87
2022-10-13T15:06:04.245Z,13.83
2022-10-13T15:08:30.739Z,13.80
2022-10-13T15:11:01.464Z,14.70
2022-10-13T15:13:28.586Z,14.47
2022-10-13T15:15:55.427Z,13.97
2022-10-13T15:18:25.797Z,15.50
2022-10-13T15:20:54.969Z,15.50
2022-10-13T15:23:21.599Z,14.97
2022-10-13T15:25:56.835Z,15.03
2022-10-13T15:28:25.365Z,16.90
2022-10-13T15:30:52.155Z,18.67
2022-10-13T15:33:19.499Z,20.47
2022-10-13T15:35:50.266Z,19.40
2022-10-13T15:38:17.973Z,17.37
2022-10-13T15:40:44.740Z,16.20
2022-10-13T15:43:12.307Z,14.43
2022-10-13T15:45:39.010Z,15.27
2022-10-13T15:48:06.903Z,14.67
2022-10-13T15:50:34.320Z,13.90
2022-10-13T15:53:00.958Z,13.33
2022-10-13T15:55:28.979Z,13.13
2022-10-13T15:57:55.610Z,11.93
2022-10-13T16:00:22.160Z,12.97
2022-10-13T16:02:51.152Z,12.70
2022-10-13T16:05:18.427Z,12.80
2022-10-13T16:07:45.024Z,11.40
2022-10-13T16:10:13.432Z,11.93
2022-10-13T16:12:40.243Z,11.27
2022-10-13T16:15:08.133Z,13.60
2022-10-13T16:17:36.242Z,13.20
2022-10-13T16:20:04.192Z,14.40
2022-10-13T16:22:30.712Z,13.20
2022-10-13T16:24:57.370Z,13.47
2022-10-13T16:27:24.525Z,12.50
2022-10-13T16:29:51.221Z,12.57
2022-10-13T16:32:18.291Z,12.90
2022-10-13T16:34:47.977Z,14.80
2022-10-13T16:37:14.460Z,17.13
2022-10-13T16:39:43.779Z,16.07
2022-10-13T16:42:12.005Z,17.70
2022-10-13T16:44:38.582Z,17.70
2022-10-13T16:47:06.456Z,16.57
2022-10-13T16:49:33.867Z,15.30
2022-10-13T16:52:00.832Z,15.07
2022-10-13T16:54:27.516Z,15.27
2022-10-13T16:56:54.036Z,16.43
2022-10-13T16:59:20.601Z,18.80
2022-10-13T17:01:48.281Z,18.50
2022-10-13T17:04:17.296Z,18.03
2022-10-13T17:06:47.913Z,17.40
2022-10-13T17:09:14.463Z,16.90
2022-10-13T17:11:41.007Z,17.27
2022-10-13T17:14:08.186Z,18.10
2022-10-13T17:16:35.958Z,16.07
2022-10-13T17:19:03.367Z,16.47
2022-10-13T17:21:29.889Z,16.40
2022-10-13T17:23:57.467Z,17.67
2022-10-13T17:26:24.090Z,17.33
2022-10-13T17:28:51.161Z,17.03
2022-10-13T17:31:23.287Z,16.63
2022-10-13T17:33:50.821Z,15.97
2022-10-13T17:36:20.214Z,16.53
2022-10-13T17:38:47.972Z,14.60
2022-10-13T17:41:14.997Z,16.97
2022-10-13T17:43:42.232Z,16.80
2022-10-13T17:46:34.977Z,16.93
2022-10-13T17:49:00.816Z,16.33
2022-10-13T17:51:27.934Z,14.93
2022-10-13T17:53:54.783Z,15.30
2022-10-13T17:56:24.031Z,15.47
2022-10-13T17:58:51.274Z,15.30
2022-10-13T18:01:29.664Z,17.87
2022-10-13T18:03:59.668Z,16.00
2022-10-13T18:06:36.794Z,15.67
2022-10-13T18:09:06.874Z,15.87
2022-10-13T18:11:33.921Z,16.13
2022-10-13T18:14:00.799Z,16.33
2022-10-13T18:16:27.327Z,15.80
2022-10-13T18:18:54.360Z,15.03
2022-10-13T18:21:24.099Z,15.47
2022-10-13T18:23:50.727Z,15.57
2022-10-13T18:26:19.386Z,15.43
2022-10-13T18:28:47.837Z,15.27
2022-10-13T18:31:17.139Z,16.83
2022-10-13T18:33:44.627Z,16.87
2022-10-13T18:36:24.245Z,17.67
2022-10-13T18:38:52.914Z,17.17
2022-10-13T18:41:22.552Z,16.40
2022-10-13T18:43:49.879Z,16.50
2022-10-13T18:46:17.165Z,17.00
2022-10-13T18:48:44.229Z,16.23
2022-10-13T18:51:16.631Z,14.87
2022-10-13T18:53:46.775Z,14.60
2022-10-13T18:56:19.484Z,16.07
2022-10-13T18:58:46.983Z,16.37
2022-10-13T19:01:17.193Z,15.93
2022-10-13T19:03:44.596Z,16.83
2022-10-13T19:06:13.713Z,18.23
2022-10-13T19:08:41.627Z,20.63
2022-10-13T19:11:17.527Z,21.23
2022-10-13T19:13:45.078Z,18.20
2022-10-13T19:16:14.261Z,17.47
2022-10-13T19:18:41.961Z,18.47
2022-10-13T19:21:09.935Z,18.53
2022-10-13T19:23:37.124Z,18.67
2022-10-13T19:26:17.962Z,18.17
2022-10-13T19:28:46.626Z,17.87
2022-10-13T19:31:21.135Z,19.00
2022-10-13T19:33:50.834Z,18.20
2022-10-13T19:36:33.888Z,18.27
2022-10-13T19:39:06.157Z,19.27
2022-10-13T19:41:34.449Z,18.33
2022-10-13T19:44:01.630Z,18.83
2022-10-13T19:46:28.742Z,18.67
2022-10-13T19:48:56.081Z,19.37
2022-10-13T19:51:23.226Z,20.07
2022-10-13T19:53:50.215Z,19.70
2022-10-13T19:56:26.772Z,22.27
2022-10-13T19:58:55.141Z,23.20
2022-10-13T20:01:24.185Z,21.80
2022-10-13T20:03:52.902Z,21.07
2022-10-13T20:06:21.126Z,24.37
2022-10-13T20:08:49.101Z,23.23
2022-10-13T20:11:23.722Z,24.00
2022-10-13T20:13:53.049Z,21.70
2022-10-13T20:16:24.275Z,22.93
2022-10-13T20:18:53.104Z,22.60
2022-10-13T20:21:19.639Z,22.73
2022-10-13T20:23:46.150Z,22.73
2022-10-13T20:26:13.360Z,22.17
2022-10-13T20:28:43.090Z,23.60
2022-10-13T20:31:11.535Z,22.10
2022-10-13T20:33:38.455Z,21.73
2022-10-13T20:36:07.993Z,22.73
2022-10-13T20:38:36.062Z,21.23
2022-10-13T20:41:16.936Z,22.23
2022-10-13T20:43:44.437Z,21.70
2022-10-13T20:46:11.587Z,22.07
2022-10-13T20:49:08.727Z,22.07
2022-10-13T20:51:27.379Z,21.43
2022-10-13T20:53:54.215Z,23.07
2022-10-13T20:56:23.671Z,22.17
2022-10-13T20:58:51.396Z,24.00
2022-10-13T21:01:19.677Z,23.47
2022-10-13T21:03:49.846Z,23.03
2022-10-13T21:06:16.376Z,23.10
2022-10-13T21:08:45.279Z,23.43
2022-10-13T21:11:14.592Z,23.10
2022-10-13T21:13:43.013Z,23.67
2022-10-13T21:16:14.462Z,23.63
2022-10-13T21:18:50.233Z,22.90
2022-10-13T21:21:20.212Z,23.37
2022-10-13T21:23:51.505Z,23.63
2022-10-13T21:26:21.686Z,23.70
2022-10-13T21:28:49.911Z,23.27
2022-10-13T21:31:17.766Z,23.60
2022-10-13T21:33:44.749Z,25.17
2022-10-13T21:36:13.219Z,24.33
2022-10-13T21:38:40.743Z,25.57
2022-10-13T21:41:09.099Z,24.50
2022-10-13T21:43:35.971Z,24.13
2022-10-13T21:46:09.954Z,24.00
2022-10-13T21:48:37.122Z,23.30
2022-10-13T21:51:18.059Z,27.57
2022-10-13T21:53:49.031Z,23.53
2022-10-13T21:56:16.163Z,25.53
2022-10-13T21:58:42.648Z,26.60
2022-10-13T22:01:09.450Z,25.67
2022-10-13T22:03:36.018Z,26.60
2022-10-13T22:06:15.888Z,24.93
2022-10-13T22:08:46.378Z,25.53
2022-10-13T22:11:13.574Z,26.17
2022-10-13T22:13:40.735Z,27.83
2022-10-13T22:16:10.855Z,25.73
2022-10-13T22:18:37.363Z,24.93
2022-10-13T22:21:07.071Z,26.10
2022-10-13T22:23:33.593Z,28.27
2022-10-13T22:26:00.510Z,28.60
2022-10-13T22:28:27.123Z,27.90
2022-10-13T22:30:53.737Z,28.33
2022-10-13T22:33:20.442Z,26.77
2022-10-13T22:35:47.075Z,26.03
2022-10-13T22:38:14.314Z,27.03
2022-10-13T22:40:41.690Z,26.63
2022-10-13T22:43:08.695Z,26.67
2022-10-13T22:45:35.286Z,26.33
2022-10-13T22:48:02.268Z,25.43
2022-10-13T22:50:29.352Z,25.50
2022-10-13T22:52:55.869Z,25.60
2022-10-13T22:55:22.576Z,25.37
2022-10-13T22:57:49.064Z,26.00
2022-10-13T23:00:16.379Z,25.87
2022-10-13T23:02:42.889Z,25.80
2022-10-13T23:05:09.560Z,25.40
2022-10-13T23:07:36.071Z,26.27
2022-10-13T23:10:02.617Z,26.97
2022-10-13T23:12:29.107Z,26.53
2022-10-13T23:14:55.592Z,27.33
2022-10-13T23:17:22.474Z,27.10
2022-10-13T23:19:49.254Z,26.97
2022-10-13T23:22:15.775Z,26.60
2022-10-13T23:24:42.250Z,27.67
2022-10-13T23:27:08.753Z,27.23
2022-10-13T23:29:35.235Z,27.30
2022-10-13T23:32:04.152Z,27.90
2022-10-13T23:34:33.243Z,27.83
2022-10-13T23:36:59.803Z,27.83
2022-10-13T23:39:26.447Z,27.27
2022-10-13T23:41:52.967Z,28.70
2022-10-13T23:44:19.439Z,28.30
2022-10-13T23:46:45.944Z,28.60
2022-10-13T23:49:13.547Z,26.80
2022-10-13T23:51:43.381Z,27.90
2022-10-13T23:54:10.304Z,27.83
2022-10-13T23:56:37.688Z,27.53
2022-10-13T23:59:04.466Z,27.00
